Аэропорт: Уральск. Уральск

ICAO: UARR

METAR:
2020-08-13 12:00:00
UARR 131200Z 17006MPS 140V210 CAVOK 28/07 Q1004 R22/CLRD70 NOSIG RMK QFE749/0999
METAR:
2020-08-13 11:03:00
TAF UARR 131103Z 1312/1321 20004G09MPS 9999 BKN033CB TEMPO 1312/1315 14005G12MPS TEMPO 1315/1321 VRB13MPS 3100 -TSRA